Time;durP1;ratioP1;P1;durP2;ratioP2;P2;SDS_P1;SDS_P2;PMS_P1;PMS_P2;Temp;Humidity;BMP_temperature;BMP_pressure;BME280_temperature;BME280_humidity;BME280_pressure;Samples;Min_cycle;Max_cycle;Signal;HPM_P1;HPM_P2
2023/11/18 00:01:32;;;;;;;9.02;5.00;;;;;;;5.31;100.00;99715.47;5042795;28;20029;-77
2023/11/18 00:03:58;;;;;;;7.35;5.25;;;;;;;5.32;100.00;99717.13;5043036;28;20028;-76
2023/11/18 00:06:23;;;;;;;10.35;6.07;;;;;;;5.33;100.00;99719.69;5042898;28;20033;-76
2023/11/18 00:08:48;;;;;;;9.18;5.32;;;;;;;5.35;100.00;99724.91;5042777;28;20037;-76
2023/11/18 00:11:13;;;;;;;8.13;5.30;;;;;;;5.31;100.00;99724.34;5049941;28;20052;-76
2023/11/18 00:13:39;;;;;;;10.00;5.78;;;;;;;5.33;100.00;99724.22;5049014;28;20032;-76
2023/11/18 00:16:06;;;;;;;10.75;5.70;;;;;;;5.32;100.00;99722.50;5044342;28;20338;-76
2023/11/18 00:18:31;;;;;;;12.90;6.68;;;;;;;5.33;100.00;99725.06;5045849;28;20021;-76
2023/11/18 00:20:57;;;;;;;13.20;6.13;;;;;;;5.27;100.00;99709.56;5044492;28;20089;-76
2023/11/18 00:23:23;;;;;;;9.90;6.15;;;;;;;5.22;100.00;99722.56;5044365;28;20231;-76
2023/11/18 00:25:48;;;;;;;10.60;6.30;;;;;;;5.12;100.00;99711.00;5042979;28;20055;-76
2023/11/18 00:28:13;;;;;;;9.18;5.88;;;;;;;5.02;100.00;99711.03;5043903;28;20026;-76
2023/11/18 00:30:38;;;;;;;9.85;6.32;;;;;;;4.95;100.00;99718.84;5043634;28;20029;-76
2023/11/18 00:33:04;;;;;;;10.50;5.93;;;;;;;4.93;100.00;99723.47;5043669;28;20025;-76
2023/11/18 00:35:31;;;;;;;9.88;6.50;;;;;;;4.90;100.00;99731.81;5042192;28;20032;-76
2023/11/18 00:37:58;;;;;;;12.55;6.00;;;;;;;4.73;100.00;99719.97;5043001;28;20140;-76
2023/11/18 00:40:23;;;;;;;10.65;6.25;;;;;;;4.72;100.00;99725.50;5042876;28;20039;-76
2023/11/18 00:42:49;;;;;;;11.77;6.57;;;;;;;4.71;100.00;99726.47;5043312;28;20053;-76
2023/11/18 00:45:15;;;;;;;12.73;7.38;;;;;;;4.64;100.00;99715.50;5042279;28;20053;-76
2023/11/18 00:47:43;;;;;;;15.07;8.65;;;;;;;4.60;100.00;99719.44;5042269;28;20088;-76
2023/11/18 00:50:08;;;;;;;12.50;7.60;;;;;;;4.58;100.00;99724.09;5041356;28;20348;-76
2023/11/18 00:52:34;;;;;;;12.80;8.07;;;;;;;4.68;100.00;99735.66;5042400;28;20063;-76
2023/11/18 00:55:00;;;;;;;16.58;7.88;;;;;;;4.68;100.00;99734.81;5043159;28;20088;-75
2023/11/18 00:57:25;;;;;;;13.23;7.82;;;;;;;4.67;100.00;99730.44;5042560;28;20397;-76
2023/11/18 00:59:51;;;;;;;17.13;9.77;;;;;;;4.64;100.00;99728.91;5041541;28;20323;-76
2023/11/18 01:02:17;;;;;;;16.42;9.77;;;;;;;4.53;100.00;99708.47;5095481;22;20036;-77
2023/11/18 01:04:44;;;;;;;18.80;9.40;;;;;;;4.61;100.00;99732.72;5085239;28;20240;-75
2023/11/18 01:07:10;;;;;;;19.23;9.73;;;;;;;4.63;100.00;99734.38;5085578;28;20084;-76
2023/11/18 01:09:38;;;;;;;20.00;9.77;;;;;;;4.67;100.00;99728.59;5079395;28;20024;-78
2023/11/18 01:12:05;;;;;;;21.08;11.23;;;;;;;4.58;100.00;99708.88;5084527;28;20325;-78
2023/11/18 01:14:31;;;;;;;19.75;10.23;;;;;;;4.78;100.00;99744.53;5080271;28;20066;-78
2023/11/18 01:16:56;;;;;;;23.85;11.27;;;;;;;4.76;100.00;99738.44;5081368;28;20024;-75
2023/11/18 01:19:21;;;;;;;18.25;10.07;;;;;;;4.76;100.00;99742.97;5084759;28;20122;-79
2023/11/18 01:21:46;;;;;;;19.92;10.55;;;;;;;4.81;100.00;99746.06;5085049;28;20021;-79
2023/11/18 01:24:12;;;;;;;24.85;11.52;;;;;;;4.83;100.00;99744.09;5083848;28;20289;-77
2023/11/18 01:26:37;;;;;;;18.50;10.15;;;;;;;4.76;100.00;99719.69;5064969;28;20059;-77
2023/11/18 01:29:03;;;;;;;21.13;11.02;;;;;;;4.87;100.00;99747.34;5079110;28;20035;-78
2023/11/18 01:31:28;;;;;;;19.38;10.65;;;;;;;4.94;100.00;99768.06;5084684;28;20062;-77
2023/11/18 01:33:55;;;;;;;20.50;11.30;;;;;;;4.76;100.00;99748.34;5084707;28;20070;-77
2023/11/18 01:36:20;;;;;;;24.48;12.35;;;;;;;4.72;100.00;99736.22;5067624;28;20017;-77
2023/11/18 01:38:46;;;;;;;23.75;12.23;;;;;;;4.84;100.00;99761.88;5065945;28;20395;-77
2023/11/18 01:41:11;;;;;;;23.48;12.50;;;;;;;4.80;100.00;99749.75;5076958;28;20074;-76
2023/11/18 01:43:37;;;;;;;25.73;12.32;;;;;;;4.78;100.00;99751.72;5085258;28;20059;-76
2023/11/18 01:46:10;;;;;;;23.90;12.77;;;;;;;4.84;100.00;99743.94;5060451;28;20024;-76
2023/11/18 01:48:37;;;;;;;24.05;13.32;;;;;;;4.88;100.00;99763.28;5083608;28;20217;-78
2023/11/18 01:51:06;;;;;;;26.50;13.75;;;;;;;4.77;100.00;99753.56;5064292;28;20320;-78
2023/11/18 01:53:33;;;;;;;28.27;14.05;;;;;;;4.87;100.00;99763.41;5066645;28;20020;-76
2023/11/18 01:55:59;;;;;;;26.27;13.32;;;;;;;4.75;100.00;99746.66;5067170;28;20024;-77
2023/11/18 01:58:25;;;;;;;22.45;11.82;;;;;;;4.88;100.00;99757.94;5067274;28;20016;-76
2023/11/18 02:00:51;;;;;;;26.23;12.18;;;;;;;4.83;100.00;99762.88;5058920;28;20088;-76
2023/11/18 02:03:17;;;;;;;23.17;12.65;;;;;;;4.80;100.00;99763.16;5078373;28;20380;-76
2023/11/18 02:05:43;;;;;;;26.05;13.07;;;;;;;4.72;100.00;99755.84;5064619;28;20042;-77
2023/11/18 02:08:09;;;;;;;26.08;12.55;;;;;;;4.59;100.00;99741.88;5073354;28;20020;-76
2023/11/18 02:10:47;;;;;;;26.35;12.73;;;;;;;4.68;100.00;99764.28;5065241;28;20036;-76
2023/11/18 02:13:25;;;;;;;26.75;12.70;;;;;;;4.66;100.00;99768.94;5056974;28;20021;-76
2023/11/18 02:15:53;;;;;;;27.00;12.77;;;;;;;4.60;100.00;99757.78;5060840;28;20321;-77
2023/11/18 02:18:19;;;;;;;25.40;13.32;;;;;;;4.61;100.00;99754.16;5064781;28;20032;-77
2023/11/18 02:20:47;;;;;;;23.65;13.25;;;;;;;4.71;100.00;99762.16;5072055;28;20032;-75
2023/11/18 02:23:13;;;;;;;23.73;11.93;;;;;;;4.77;100.00;99763.44;5074671;28;20341;-78
2023/11/18 02:25:46;;;;;;;24.90;11.95;;;;;;;4.63;100.00;99758.50;5065297;28;20080;-77
2023/11/18 02:28:11;;;;;;;23.58;12.57;;;;;;;4.59;100.00;99756.13;5053212;28;20024;-78
2023/11/18 02:30:37;;;;;;;23.48;12.23;;;;;;;4.63;100.00;99759.34;5081534;28;20353;-78
2023/11/18 02:33:29;;;;;;;24.50;12.68;;;;;;;4.63;100.00;99758.50;5056883;28;20034;-79
2023/11/18 02:36:05;;;;;;;22.30;12.25;;;;;;;4.65;100.00;99756.53;5066041;28;20100;-76
2023/11/18 02:38:36;;;;;;;25.63;14.25;;;;;;;4.66;100.00;99763.59;5072848;28;20020;-78
2023/11/18 02:41:08;;;;;;;26.35;13.50;;;;;;;4.68;100.00;99765.13;5071356;28;20023;-77
2023/11/18 02:43:37;;;;;;;25.58;12.77;;;;;;;4.59;100.00;99758.78;5080735;28;20255;-76
2023/11/18 02:46:04;;;;;;;19.40;10.45;;;;;;;4.59;100.00;99745.41;5049015;28;20017;-76
2023/11/18 02:48:31;;;;;;;27.15;13.75;;;;;;;4.78;100.00;99767.81;5050576;28;20036;-77
2023/11/18 02:50:57;;;;;;;25.20;12.93;;;;;;;4.75;100.00;99760.91;5046147;28;20226;-75
2023/11/18 02:53:22;;;;;;;24.65;13.18;;;;;;;4.74;100.00;99761.91;5048156;28;20092;-76
2023/11/18 02:55:47;;;;;;;20.77;12.20;;;;;;;4.64;100.00;99738.75;5047459;28;20021;-76
2023/11/18 02:58:12;;;;;;;22.98;12.15;;;;;;;4.75;100.00;99752.84;5049987;28;20309;-75
2023/11/18 03:00:38;;;;;;;27.70;15.65;;;;;;;4.75;100.00;99744.81;5082210;28;20024;-76
2023/11/18 03:03:03;;;;;;;25.15;15.30;;;;;;;4.75;100.00;99752.84;5066213;28;20095;-76
2023/11/18 03:05:30;;;;;;;26.10;14.48;;;;;;;4.75;100.00;99747.50;5066154;28;20096;-77
2023/11/18 03:07:57;;;;;;;27.63;13.98;;;;;;;4.58;100.00;99716.91;5079454;28;20039;-75
2023/11/18 03:10:23;;;;;;;21.52;11.90;;;;;;;4.64;100.00;99734.25;5075281;28;20040;-76
2023/11/18 03:12:53;;;;;;;23.00;12.10;;;;;;;4.71;100.00;99737.19;5046078;28;20029;-78
2023/11/18 03:15:19;;;;;;;23.75;12.25;;;;;;;4.72;100.00;99738.91;5064394;28;20038;-76
2023/11/18 03:17:51;;;;;;;22.38;11.60;;;;;;;4.77;100.00;99756.25;5083739;28;20021;-76
2023/11/18 03:20:18;;;;;;;22.25;11.38;;;;;;;4.74;100.00;99750.31;5049101;28;20017;-77
2023/11/18 03:22:47;;;;;;;21.73;11.88;;;;;;;4.71;100.00;99742.56;5046965;28;20021;-76
2023/11/18 03:25:13;;;;;;;22.52;11.05;;;;;;;4.79;100.00;99758.78;5045442;28;20377;-76
2023/11/18 03:27:38;;;;;;;20.48;11.00;;;;;;;4.69;100.00;99740.03;5063423;28;20055;-76
2023/11/18 03:30:06;;;;;;;21.55;11.73;;;;;;;4.83;100.00;99757.50;5059558;28;20024;-76
2023/11/18 03:32:31;;;;;;;18.35;10.90;;;;;;;4.75;100.00;99744.81;5063308;28;20021;-76
2023/11/18 03:34:59;;;;;;;20.73;11.50;;;;;;;4.73;100.00;99732.53;5062120;28;20404;-77
2023/11/18 03:37:24;;;;;;;23.60;11.55;;;;;;;4.81;100.00;99735.34;5082958;28;20321;-76
2023/11/18 03:39:50;;;;;;;17.95;10.38;;;;;;;4.71;100.00;99729.16;5059751;28;20111;-76
2023/11/18 03:42:15;;;;;;;18.98;9.98;;;;;;;4.74;100.00;99744.94;5083211;28;20298;-76
2023/11/18 03:44:41;;;;;;;18.55;10.23;;;;;;;4.71;100.00;99734.50;5065069;28;20031;-78
2023/11/18 03:47:06;;;;;;;18.42;9.95;;;;;;;4.75;100.00;99739.47;5048412;28;20021;-77
2023/11/18 03:49:32;;;;;;;17.65;10.07;;;;;;;4.82;100.00;99753.13;5046236;28;20020;-75
2023/11/18 03:51:57;;;;;;;19.77;10.68;;;;;;;4.77;100.00;99760.78;5046723;28;20028;-75
2023/11/18 03:54:22;;;;;;;19.80;11.00;;;;;;;4.72;100.00;99755.00;5045168;28;20341;-76
2023/11/18 03:56:48;;;;;;;18.33;10.70;;;;;;;4.75;100.00;99747.50;5079397;28;20131;-76
2023/11/18 03:59:13;;;;;;;17.05;10.40;;;;;;;4.73;100.00;99743.25;5064317;28;20020;-75
2023/11/18 04:01:38;;;;;;;19.23;10.80;;;;;;;4.71;100.00;99747.91;5069756;28;20261;-75
2023/11/18 04:04:06;;;;;;;17.17;10.00;;;;;;;4.70;100.00;99744.41;5064031;28;20047;-75
2023/11/18 04:06:32;;;;;;;19.05;10.07;;;;;;;4.63;100.00;99740.59;5045894;28;20087;-75
2023/11/18 04:08:57;;;;;;;19.23;10.55;;;;;;;4.45;100.00;99728.88;5044876;28;20021;-75
2023/11/18 04:11:23;;;;;;;17.85;10.38;;;;;;;4.52;100.00;99748.78;5046386;28;20025;-78
2023/11/18 04:13:49;;;;;;;17.13;10.38;;;;;;;4.30;100.00;99728.47;5062411;28;20054;-76
2023/11/18 04:16:18;;;;;;;21.42;10.80;;;;;;;4.31;100.00;99748.91;5062652;28;20248;-75
2023/11/18 04:18:45;;;;;;;17.00;9.75;;;;;;;4.26;100.00;99759.19;5064490;28;20187;-75
2023/11/18 04:21:12;;;;;;;19.15;10.25;;;;;;;4.14;100.00;99759.34;5059546;28;20375;-75
2023/11/18 04:23:39;;;;;;;17.30;10.23;;;;;;;3.98;100.00;99752.81;5060433;28;20024;-75
2023/11/18 04:26:05;;;;;;;19.83;9.70;;;;;;;4.04;100.00;99761.16;5064313;28;20020;-75
2023/11/18 04:28:31;;;;;;;19.77;9.88;;;;;;;3.99;100.00;99750.00;5064687;28;20020;-76
2023/11/18 04:30:56;;;;;;;16.98;9.95;;;;;;;3.99;100.00;99754.53;5056938;28;20108;-75
2023/11/18 04:33:22;;;;;;;20.05;10.18;;;;;;;3.84;100.00;99738.00;5080242;28;20080;-75
2023/11/18 04:35:47;;;;;;;19.75;11.02;;;;;;;3.79;100.00;99724.16;5061474;28;20404;-76
2023/11/18 04:38:12;;;;;;;21.00;10.63;;;;;;;3.98;100.00;99760.84;5081146;28;20221;-76
2023/11/18 04:40:41;;;;;;;21.27;11.77;;;;;;;4.07;100.00;99758.19;5064125;28;20013;-76
2023/11/18 04:43:06;;;;;;;19.73;11.53;;;;;;;4.07;100.00;99744.81;5063973;28;20321;-76
2023/11/18 04:45:32;;;;;;;20.75;11.40;;;;;;;4.36;100.00;99768.09;5066415;28;20090;-76
2023/11/18 04:47:59;;;;;;;21.63;11.00;;;;;;;4.41;100.00;99755.13;5062440;28;20021;-76
2023/11/18 04:50:24;;;;;;;22.55;10.20;;;;;;;4.42;100.00;99747.94;5075277;28;20059;-76
2023/11/18 04:52:49;;;;;;;17.75;10.82;;;;;;;4.53;100.00;99748.66;5063945;28;20024;-78
2023/11/18 04:55:15;;;;;;;20.08;10.02;;;;;;;4.54;100.00;99747.66;5063224;28;20027;-76
2023/11/18 04:57:40;;;;;;;21.05;11.05;;;;;;;4.67;100.00;99754.56;5082325;28;20311;-76
2023/11/18 05:00:10;;;;;;;17.95;9.52;;;;;;;4.45;100.00;99719.00;5071925;28;20050;-78
2023/11/18 05:02:37;;;;;;;21.27;9.88;;;;;;;4.51;100.00;99726.50;5064139;28;20012;-77
2023/11/18 05:05:04;;;;;;;16.25;9.23;;;;;;;4.66;100.00;99747.50;5072909;28;20021;-79
2023/11/18 05:07:30;;;;;;;14.50;8.63;;;;;;;4.74;100.00;99748.50;5054829;28;20070;-81
2023/11/18 05:09:56;;;;;;;23.23;8.90;;;;;;;4.70;100.00;99722.94;5061073;28;20024;-76
2023/11/18 05:12:22;;;;;;;14.35;8.35;;;;;;;4.86;100.00;99748.34;5074409;28;20113;-76
2023/11/18 05:14:49;;;;;;;15.65;8.55;;;;;;;4.90;100.00;99764.00;5077483;28;20080;-76
2023/11/18 05:17:15;;;;;;;17.38;9.93;;;;;;;4.94;100.00;99761.88;5085257;28;20224;-81
2023/11/18 05:19:41;;;;;;;17.17;10.98;;;;;;;4.87;100.00;99742.81;5062763;28;20021;-77
2023/11/18 05:22:06;;;;;;;16.02;9.90;;;;;;;5.10;100.00;99761.25;5048681;28;20326;-75
2023/11/18 05:24:32;;;;;;;15.35;8.40;;;;;;;5.03;100.00;99753.81;5057287;28;20028;-78
2023/11/18 05:27:01;;;;;;;15.05;9.13;;;;;;;4.97;100.00;99757.06;5053544;28;20226;-76
2023/11/18 05:29:27;;;;;;;17.65;9.32;;;;;;;4.97;100.00;99754.38;5076919;28;20032;-78
2023/11/18 05:31:54;;;;;;;13.07;8.27;;;;;;;4.95;100.00;99764.41;5059316;28;20043;-77
2023/11/18 05:34:20;;;;;;;13.68;8.90;;;;;;;4.88;100.00;99757.09;5080920;28;20025;-81
2023/11/18 05:36:46;;;;;;;14.32;8.48;;;;;;;4.82;100.00;99753.13;5054620;28;20024;-81
2023/11/18 05:39:11;;;;;;;15.80;9.07;;;;;;;4.67;100.00;99735.81;5057308;28;20027;-85
2023/11/18 05:41:39;;;;;;;14.13;8.30;;;;;;;4.61;100.00;99734.50;5055790;28;20028;-77
2023/11/18 05:44:05;;;;;;;15.40;7.60;;;;;;;4.59;100.00;99737.34;5061918;28;20027;-79
2023/11/18 05:46:32;;;;;;;12.95;7.40;;;;;;;4.63;100.00;99751.31;5064125;28;20035;-79
2023/11/18 05:49:02;;;;;;;14.05;8.75;;;;;;;4.54;100.00;99753.00;5064343;28;20021;-80
2023/11/18 05:51:29;;;;;;;15.57;8.00;;;;;;;4.37;100.00;99735.78;5080936;28;20051;-79
2023/11/18 05:53:55;;;;;;;17.13;8.55;;;;;;;4.29;100.00;99738.31;5064070;28;20028;-78
2023/11/18 05:56:24;;;;;;;14.85;7.68;;;;;;;4.26;100.00;99741.28;5083726;28;20031;-77
2023/11/18 05:58:50;;;;;;;14.77;8.15;;;;;;;4.16;100.00;99743.94;5058276;28;20021;-76
2023/11/18 06:01:16;;;;;;;16.77;8.70;;;;;;;4.26;100.00;99743.97;5062701;28;20025;-78
2023/11/18 06:03:42;;;;;;;15.60;8.18;;;;;;;4.14;100.00;99732.56;5082925;28;20070;-77
2023/11/18 06:06:09;;;;;;;16.98;8.98;;;;;;;4.06;100.00;99713.66;5064767;28;20190;-77
2023/11/18 06:08:40;;;;;;;16.95;8.13;;;;;;;4.20;100.00;99722.28;5084776;28;20123;-78
2023/11/18 06:11:12;;;;;;;14.00;7.80;;;;;;;4.29;100.00;99730.28;5066211;28;20333;-85
2023/11/18 06:13:42;;;;;;;16.05;8.77;;;;;;;4.36;100.00;99730.59;5078668;28;20028;-76
2023/11/18 06:16:14;;;;;;;14.95;8.20;;;;;;;4.23;100.00;99708.59;5074655;28;20035;-80
2023/11/18 06:18:46;;;;;;;14.48;8.10;;;;;;;4.31;100.00;99725.66;5072092;28;20257;-77
2023/11/18 06:21:18;;;;;;;16.75;9.18;;;;;;;4.29;100.00;99730.28;5047459;28;20337;-77
2023/11/18 06:23:45;;;;;;;15.57;8.55;;;;;;;4.29;100.00;99714.22;5066513;28;20119;-77
2023/11/18 06:26:11;;;;;;;17.55;10.30;;;;;;;4.32;100.00;99713.09;5081114;28;20021;-77
2023/11/18 06:28:39;;;;;;;16.52;8.45;;;;;;;4.49;100.00;99749.91;5065687;28;20035;-77
2023/11/18 06:31:08;;;;;;;15.40;7.78;;;;;;;4.50;100.00;99756.94;5062056;28;20317;-77
2023/11/18 06:33:36;;;;;;;15.02;8.38;;;;;;;4.55;100.00;99761.88;5071186;28;20044;-77
2023/11/18 06:36:01;;;;;;;15.52;9.02;;;;;;;4.57;100.00;99760.75;5062809;28;20035;-77
2023/11/18 06:38:27;;;;;;;19.08;10.32;;;;;;;4.48;100.00;99737.50;5063275;28;20244;-77
2023/11/18 06:40:52;;;;;;;17.38;10.15;;;;;;;4.54;100.00;99761.06;5081290;28;20032;-77
2023/11/18 06:43:19;;;;;;;21.08;9.77;;;;;;;4.54;100.00;99768.25;5065357;28;20063;-80
2023/11/18 06:45:44;;;;;;;18.40;10.25;;;;;;;4.66;100.00;99769.78;5055217;28;20020;-79
2023/11/18 06:48:10;;;;;;;17.65;9.40;;;;;;;4.61;100.00;99751.47;5056382;28;20372;-75
2023/11/18 06:50:36;;;;;;;13.23;8.30;;;;;;;4.64;100.00;99733.38;5084144;28;20039;-75
2023/11/18 06:53:01;;;;;;;17.00;8.60;;;;;;;4.93;100.00;99754.81;5057915;28;20024;-75
2023/11/18 06:55:26;;;;;;;14.30;8.07;;;;;;;4.95;100.00;99760.88;5067212;28;20218;-77
2023/11/18 06:57:53;;;;;;;13.88;7.13;;;;;;;5.01;100.00;99747.75;5049703;28;20066;-76
2023/11/18 07:00:21;;;;;;;12.93;7.93;;;;;;;5.08;100.00;99747.16;5053575;28;20480;-76
2023/11/18 07:02:47;;;;;;;11.75;7.28;;;;;;;4.99;100.00;99738.97;5053912;22;20037;-75
2023/11/18 07:05:12;;;;;;;12.93;7.65;;;;;;;5.00;100.00;99743.38;5062491;28;20074;-76
2023/11/18 07:07:37;;;;;;;13.40;7.38;;;;;;;5.13;100.00;99742.19;5063634;28;20025;-75
2023/11/18 07:10:04;;;;;;;13.80;7.13;;;;;;;5.28;100.00;99733.53;5046021;28;20266;-75
2023/11/18 07:12:33;;;;;;;13.27;7.90;;;;;;;5.53;100.00;99746.44;5059281;28;20330;-75
2023/11/18 07:15:00;;;;;;;14.07;8.15;;;;;;;5.61;100.00;99725.09;5042259;28;20328;-76
2023/11/18 07:17:26;;;;;;;17.55;8.65;;;;;;;5.93;100.00;99738.03;5025384;28;20313;-76
2023/11/18 07:19:51;;;;;;;15.18;7.43;;;;;;;6.18;100.00;99736.47;5074487;28;20028;-76
2023/11/18 07:22:16;;;;;;;11.48;7.30;;;;;;;6.49;100.00;99738.81;5052719;28;20319;-76
2023/11/18 07:24:43;;;;;;;12.10;5.53;;;;;;;6.46;100.00;99696.94;5057688;28;20378;-74
2023/11/18 07:27:11;;;;;;;10.07;6.15;;;;;;;7.09;100.00;99712.03;5053700;28;20024;-74
2023/11/18 07:29:36;;;;;;;8.25;5.15;;;;;;;7.97;100.00;99714.47;5063069;28;20215;-74
2023/11/18 07:32:05;;;;;;;6.22;4.13;;;;;;;8.56;100.00;99703.63;5042385;28;20025;-74
2023/11/18 07:34:32;;;;;;;6.28;4.18;;;;;;;8.53;100.00;99696.72;5044334;28;20021;-74
2023/11/18 07:36:58;;;;;;;8.00;3.40;;;;;;;8.51;100.00;99700.59;5049021;28;20032;-74
2023/11/18 07:39:29;;;;;;;5.47;3.75;;;;;;;8.45;100.00;99696.72;5064554;28;20029;-74
2023/11/18 07:41:57;;;;;;;6.50;3.70;;;;;;;8.54;100.00;99705.63;5039090;28;20111;-74
2023/11/18 07:44:24;;;;;;;6.00;3.78;;;;;;;8.91;100.00;99691.66;5041024;28;20025;-73
2023/11/18 07:46:50;;;;;;;9.68;3.85;;;;;;;9.02;100.00;99681.50;5042737;28;20037;-73
2023/11/18 07:49:16;;;;;;;7.40;4.35;;;;;;;9.47;100.00;99669.22;5045872;28;20269;-74
2023/11/18 07:51:42;;;;;;;6.63;5.00;;;;;;;9.79;100.00;99684.44;5040071;28;20055;-73
2023/11/18 07:54:07;;;;;;;5.07;3.55;;;;;;;10.34;100.00;99685.31;5050509;28;20017;-73
2023/11/18 07:56:32;;;;;;;6.30;4.13;;;;;;;10.45;100.00;99684.88;5045758;28;20021;-74
2023/11/18 07:58:58;;;;;;;4.63;3.08;;;;;;;10.91;100.00;99674.84;5046799;28;20021;-74
2023/11/18 08:01:23;;;;;;;5.40;2.97;;;;;;;11.43;100.00;99688.53;5043470;28;20083;-74
2023/11/18 08:03:50;;;;;;;6.80;3.35;;;;;;;11.36;100.00;99700.09;5042435;28;20040;-74
2023/11/18 08:06:17;;;;;;;5.15;3.55;;;;;;;11.05;100.00;99702.13;5050816;28;20030;-74
2023/11/18 08:08:42;;;;;;;5.65;3.70;;;;;;;10.59;100.00;99708.47;5056229;28;20023;-73
2023/11/18 08:11:12;;;;;;;7.30;3.40;;;;;;;10.14;100.00;99703.84;5043336;28;20025;-74
2023/11/18 08:13:37;;;;;;;5.80;3.17;;;;;;;9.72;100.00;99703.22;5040610;28;20032;-74
2023/11/18 08:16:02;;;;;;;8.45;2.95;;;;;;;9.31;100.00;99689.88;5040795;28;20026;-74
2023/11/18 08:18:30;;;;;;;3.47;2.30;;;;;;;9.36;100.00;99689.34;5040465;28;20089;-74
2023/11/18 08:20:57;;;;;;;4.65;2.50;;;;;;;9.35;100.00;99693.91;5042691;28;20025;-74
2023/11/18 08:23:22;;;;;;;3.80;2.53;;;;;;;9.31;100.00;99681.75;5041762;28;20053;-75
2023/11/18 08:25:47;;;;;;;3.67;2.50;;;;;;;8.98;100.00;99695.31;5048593;28;20025;-75
2023/11/18 08:28:13;;;;;;;2.58;2.08;;;;;;;8.77;100.00;99665.34;5048115;28;20086;-78
2023/11/18 08:30:39;;;;;;;3.75;2.53;;;;;;;8.61;100.00;99682.38;5044262;28;20138;-76
2023/11/18 08:33:08;;;;;;;4.53;2.45;;;;;;;8.33;100.00;99689.91;5043056;28;20026;-76
2023/11/18 08:35:33;;;;;;;4.22;2.60;;;;;;;8.50;100.00;99686.25;5059788;28;20033;-77
2023/11/18 08:38:00;;;;;;;2.75;2.10;;;;;;;8.19;100.00;99688.72;5042984;28;20025;-74
2023/11/18 08:40:25;;;;;;;3.95;2.67;;;;;;;8.13;100.00;99692.09;5066907;28;20222;-82
2023/11/18 08:42:53;;;;;;;6.38;2.75;;;;;;;8.14;100.00;99699.16;5061519;28;20092;-78
2023/11/18 08:45:29;;;;;;;5.35;2.92;;;;;;;8.12;100.00;99701.19;5064371;28;20029;-78
2023/11/18 08:48:06;;;;;;;6.65;2.85;;;;;;;8.06;100.00;99697.28;5037309;28;20025;-79
2023/11/18 08:50:33;;;;;;;4.50;2.50;;;;;;;8.19;100.00;99701.38;5035744;28;20326;-77
2023/11/18 08:52:58;;;;;;;4.10;2.60;;;;;;;7.88;100.00;99694.72;5056127;28;20025;-78
2023/11/18 08:55:41;;;;;;;6.10;2.53;;;;;;;8.09;100.00;99706.91;5044015;28;20031;-79
2023/11/18 08:58:33;;;;;;;5.57;3.30;;;;;;;8.06;100.00;99685.69;5042213;28;20096;-78
2023/11/18 09:01:05;;;;;;;4.38;2.65;;;;;;;8.13;100.00;99692.09;5040098;28;20025;-79
2023/11/18 09:03:42;;;;;;;4.90;3.00;;;;;;;8.52;100.00;99688.81;5041381;28;20316;-78
2023/11/18 09:06:18;;;;;;;5.30;2.50;;;;;;;9.36;100.00;99689.34;5043858;28;20033;-79
2023/11/18 09:08:45;;;;;;;6.18;2.30;;;;;;;9.90;100.00;99689.44;5037617;28;20029;-75
2023/11/18 09:11:14;;;;;;;4.47;2.55;;;;;;;10.41;100.00;99683.59;5040415;28;20025;-75
2023/11/18 09:13:42;;;;;;;4.05;2.40;;;;;;;11.13;100.00;99675.81;5046288;28;20028;-75
2023/11/18 09:16:09;;;;;;;4.57;2.88;;;;;;;11.72;100.00;99690.38;5036785;28;20061;-75
2023/11/18 09:18:35;;;;;;;6.22;2.30;;;;;;;13.30;100.00;99690.28;5034683;28;20032;-75
2023/11/18 09:21:03;;;;;;;3.42;2.28;;;;;;;13.85;100.00;99673.22;5037903;28;20021;-72
2023/11/18 09:23:31;;;;;;;3.03;1.80;;;;;;;13.74;100.00;99661.88;5051313;28;20097;-73
2023/11/18 09:25:57;;;;;;;3.70;2.03;;;;;;;14.20;100.00;99657.59;5042100;28;20322;-74
2023/11/18 09:28:29;;;;;;;2.53;1.85;;;;;;;15.73;100.00;99679.38;5045936;28;20037;-73
2023/11/18 09:30:57;;;;;;;3.95;2.05;;;;;;;16.38;90.61;99682.84;5049125;28;20221;-74
2023/11/18 09:33:33;;;;;;;2.10;1.60;;;;;;;17.03;81.98;99668.09;5077279;28;20036;-75
2023/11/18 09:36:12;;;;;;;3.65;1.63;;;;;;;15.85;85.15;99669.50;5025622;28;20025;-75
2023/11/18 09:38:41;;;;;;;2.60;1.67;;;;;;;15.19;92.64;99686.81;5042428;28;20021;-74
2023/11/18 09:41:13;;;;;;;7.05;1.95;;;;;;;14.75;97.35;99671.13;5042752;28;20022;-72
2023/11/18 09:43:45;;;;;;;3.33;1.80;;;;;;;13.94;100.00;99677.44;5048477;28;20067;-72
2023/11/18 09:46:14;;;;;;;5.20;2.40;;;;;;;13.24;100.00;99677.47;5046098;28;20056;-72
2023/11/18 09:49:01;;;;;;;;;;;;;;;12.05;100.00;99693.50;5054389;28;20021;-72
2023/11/18 09:51:33;;;;;;;2.92;1.77;;;;;;;10.71;100.00;99690.75;5067954;28;19943;-74
2023/11/18 09:54:10;;;;;;;2.95;1.85;;;;;;;10.87;100.00;99694.34;5059387;28;20036;-76
2023/11/18 09:56:57;;;;;;;4.25;2.05;;;;;;;11.75;100.00;99681.88;5044081;28;20238;-75
2023/11/18 09:59:35;;;;;;;4.30;2.15;;;;;;;11.86;100.00;99681.41;5051530;28;20033;-74
2023/11/18 10:02:06;;;;;;;3.30;1.88;;;;;;;11.24;100.00;99679.94;5047397;28;20218;-72
2023/11/18 10:04:32;;;;;;;4.35;2.08;;;;;;;11.12;100.00;99665.16;5068398;28;20017;-72
2023/11/18 10:07:02;;;;;;;2.88;1.90;;;;;;;11.24;100.00;99679.06;5050891;28;20070;-72
2023/11/18 10:09:39;;;;;;;5.30;2.25;;;;;;;11.69;100.00;99652.81;5046651;28;20196;-72
2023/11/18 10:12:07;;;;;;;4.63;2.40;;;;;;;11.68;100.00;99673.63;5048932;28;20056;-72
2023/11/18 10:14:34;;;;;;;5.13;2.70;;;;;;;10.98;100.00;99656.00;5058734;28;20024;-73
2023/11/18 10:17:06;;;;;;;4.05;2.30;;;;;;;11.04;100.00;99668.81;5058619;28;20097;-72
2023/11/18 10:19:56;;;;;;;10.85;2.30;;;;;;;11.02;100.00;99670.84;5037316;28;21346;-73
2023/11/18 10:22:23;;;;;;;6.40;2.70;;;;;;;11.10;100.00;99668.06;5045551;28;20307;-72
2023/11/18 10:24:49;;;;;;;5.55;2.30;;;;;;;10.92;100.00;99659.44;5050241;28;20114;-72
2023/11/18 10:27:15;;;;;;;4.20;2.08;;;;;;;10.46;100.00;99670.34;5042118;28;20117;-72
2023/11/18 10:29:40;;;;;;;5.97;2.20;;;;;;;10.36;100.00;99665.19;5051491;28;20327;-72
2023/11/18 10:32:15;;;;;;;6.90;2.03;;;;;;;10.34;100.00;99678.03;5043564;28;20025;-75
2023/11/18 10:34:42;;;;;;;4.93;1.92;;;;;;;9.95;100.00;99661.88;5055739;28;20127;-75
2023/11/18 10:37:10;;;;;;;4.00;2.10;;;;;;;9.90;100.00;99669.69;5047845;28;20022;-75
2023/11/18 10:39:36;;;;;;;4.55;2.08;;;;;;;9.75;100.00;99667.75;5049396;28;20294;-75
2023/11/18 10:42:02;;;;;;;3.45;2.10;;;;;;;9.54;100.00;99649.44;5047667;28;20036;-75
2023/11/18 10:44:29;;;;;;;3.92;2.20;;;;;;;9.66;100.00;99652.56;5046266;28;20036;-75
2023/11/18 10:46:58;;;;;;;4.50;2.50;;;;;;;9.56;100.00;99641.13;5055966;28;20021;-75
2023/11/18 10:49:36;;;;;;;3.75;2.33;;;;;;;9.70;100.00;99651.22;5045916;28;20119;-75
2023/11/18 10:52:06;;;;;;;3.55;1.95;;;;;;;9.75;100.00;99656.94;5053581;28;20021;-74
2023/11/18 10:54:32;;;;;;;4.75;1.95;;;;;;;9.66;100.00;99641.75;5042185;28;20182;-74
2023/11/18 10:57:07;;;;;;;3.33;1.70;;;;;;;9.54;100.00;99651.31;5042728;28;20052;-74
2023/11/18 10:59:32;;;;;;;3.40;1.83;;;;;;;9.58;100.00;99652.63;5051289;28;20203;-75
2023/11/18 11:01:57;;;;;;;5.07;2.35;;;;;;;9.63;100.00;99652.94;5043086;28;20096;-75
2023/11/18 11:04:23;;;;;;;2.88;1.75;;;;;;;9.25;100.00;99644.66;5042662;28;20029;-75
2023/11/18 11:06:53;;;;;;;2.60;1.73;;;;;;;9.29;100.00;99637.88;5049996;28;20048;-75
2023/11/18 11:09:24;;;;;;;3.83;2.10;;;;;;;9.19;100.00;99642.63;5047898;28;20025;-75
2023/11/18 11:11:54;;;;;;;6.22;2.40;;;;;;;9.44;100.00;99632.59;5056322;28;20024;-76
2023/11/18 11:14:24;;;;;;;6.50;2.40;;;;;;;9.48;100.00;99638.47;5046025;28;20110;-75
2023/11/18 11:16:54;;;;;;;7.03;2.25;;;;;;;9.62;100.00;99637.75;5047944;28;20026;-75
2023/11/18 11:19:44;;;;;;;6.47;2.63;;;;;;;9.78;100.00;99628.72;5042834;28;20029;-76
2023/11/18 11:22:11;;;;;;;3.13;2.00;;;;;;;10.02;100.00;99638.53;5041529;28;20021;-76
2023/11/18 11:24:42;;;;;;;2.55;1.67;;;;;;;10.07;100.00;99639.66;5044590;28;20024;-75
2023/11/18 11:27:23;;;;;;;4.72;2.03;;;;;;;9.72;100.00;99626.69;5044106;28;20031;-75